sensor_id;sensor_type;location;lat;lon;timestamp;P1;durP1;ratioP1;P2;durP2;ratioP2
20609;SDS011;10463;52.378;9.688;2023-01-15T00:02:04;1.20;;;0.60;;
20609;SDS011;10463;52.378;9.688;2023-01-15T00:04:30;1.43;;;0.60;;
20609;SDS011;10463;52.378;9.688;2023-01-15T00:06:56;1.50;;;0.70;;
20609;SDS011;10463;52.378;9.688;2023-01-15T00:09:23;1.70;;;0.60;;
20609;SDS011;10463;52.378;9.688;2023-01-15T00:11:49;1.23;;;0.60;;
20609;SDS011;10463;52.378;9.688;2023-01-15T00:14:15;1.40;;;0.60;;
20609;SDS011;10463;52.378;9.688;2023-01-15T00:16:43;1.20;;;0.60;;
20609;SDS011;10463;52.378;9.688;2023-01-15T00:19:10;1.70;;;0.80;;
20609;SDS011;10463;52.378;9.688;2023-01-15T00:21:37;1.50;;;0.63;;
20609;SDS011;10463;52.378;9.688;2023-01-15T00:24:04;1.40;;;0.60;;
20609;SDS011;10463;52.378;9.688;2023-01-15T00:26:49;1.20;;;0.60;;
20609;SDS011;10463;52.378;9.688;2023-01-15T00:29:34;1.20;;;0.50;;
20609;SDS011;10463;52.378;9.688;2023-01-15T00:32:03;1.20;;;0.60;;
20609;SDS011;10463;52.378;9.688;2023-01-15T00:34:31;1.20;;;0.60;;
20609;SDS011;10463;52.378;9.688;2023-01-15T00:36:59;1.20;;;0.60;;
20609;SDS011;10463;52.378;9.688;2023-01-15T00:39:27;1.40;;;0.60;;
20609;SDS011;10463;52.378;9.688;2023-01-15T00:41:54;1.73;;;0.60;;
20609;SDS011;10463;52.378;9.688;2023-01-15T00:44:21;1.37;;;0.60;;
20609;SDS011;10463;52.378;9.688;2023-01-15T00:46:47;1.40;;;0.60;;
20609;SDS011;10463;52.378;9.688;2023-01-15T00:49:15;1.20;;;0.60;;
20609;SDS011;10463;52.378;9.688;2023-01-15T00:51:42;1.30;;;0.60;;
20609;SDS011;10463;52.378;9.688;2023-01-15T00:54:09;1.67;;;0.60;;
20609;SDS011;10463;52.378;9.688;2023-01-15T00:56:35;1.33;;;0.80;;
20609;SDS011;10463;52.378;9.688;2023-01-15T00:59:02;1.20;;;0.60;;
20609;SDS011;10463;52.378;9.688;2023-01-15T01:01:30;1.67;;;0.60;;
20609;SDS011;10463;52.378;9.688;2023-01-15T01:03:56;1.50;;;0.70;;
20609;SDS011;10463;52.378;9.688;2023-01-15T01:06:24;1.20;;;0.50;;
20609;SDS011;10463;52.378;9.688;2023-01-15T01:08:51;1.20;;;0.60;;
20609;SDS011;10463;52.378;9.688;2023-01-15T01:11:23;1.30;;;0.60;;
20609;SDS011;10463;52.378;9.688;2023-01-15T01:13:52;1.30;;;0.60;;
20609;SDS011;10463;52.378;9.688;2023-01-15T01:16:25;2.10;;;0.60;;
20609;SDS011;10463;52.378;9.688;2023-01-15T01:18:55;1.40;;;0.60;;
20609;SDS011;10463;52.378;9.688;2023-01-15T01:21:24;1.30;;;0.70;;
20609;SDS011;10463;52.378;9.688;2023-01-15T01:23:51;1.20;;;0.60;;
20609;SDS011;10463;52.378;9.688;2023-01-15T01:26:18;1.60;;;0.87;;
20609;SDS011;10463;52.378;9.688;2023-01-15T01:28:48;1.23;;;0.60;;
20609;SDS011;10463;52.378;9.688;2023-01-15T01:31:15;1.20;;;0.60;;
20609;SDS011;10463;52.378;9.688;2023-01-15T01:33:42;1.70;;;0.60;;
20609;SDS011;10463;52.378;9.688;2023-01-15T01:36:08;1.30;;;0.60;;
20609;SDS011;10463;52.378;9.688;2023-01-15T01:38:36;1.83;;;0.60;;
20609;SDS011;10463;52.378;9.688;2023-01-15T01:41:03;1.60;;;0.70;;
20609;SDS011;10463;52.378;9.688;2023-01-15T01:43:30;1.20;;;0.60;;
20609;SDS011;10463;52.378;9.688;2023-01-15T01:46:17;2.33;;;0.67;;
20609;SDS011;10463;52.378;9.688;2023-01-15T01:48:43;2.50;;;0.60;;
20609;SDS011;10463;52.378;9.688;2023-01-15T01:51:11;3.00;;;0.60;;
20609;SDS011;10463;52.378;9.688;2023-01-15T01:53:39;1.70;;;0.67;;
20609;SDS011;10463;52.378;9.688;2023-01-15T01:56:06;1.20;;;0.60;;
20609;SDS011;10463;52.378;9.688;2023-01-15T01:58:34;1.47;;;0.70;;
20609;SDS011;10463;52.378;9.688;2023-01-15T02:01:01;1.27;;;0.60;;
20609;SDS011;10463;52.378;9.688;2023-01-15T02:03:30;1.30;;;0.60;;
20609;SDS011;10463;52.378;9.688;2023-01-15T02:06:01;2.13;;;0.60;;
20609;SDS011;10463;52.378;9.688;2023-01-15T02:08:31;3.60;;;0.90;;
20609;SDS011;10463;52.378;9.688;2023-01-15T02:10:59;1.97;;;0.70;;
20609;SDS011;10463;52.378;9.688;2023-01-15T02:13:33;1.40;;;0.60;;
20609;SDS011;10463;52.378;9.688;2023-01-15T02:16:07;1.30;;;0.60;;
20609;SDS011;10463;52.378;9.688;2023-01-15T02:18:42;1.30;;;0.60;;
20609;SDS011;10463;52.378;9.688;2023-01-15T02:21:20;1.30;;;0.70;;
20609;SDS011;10463;52.378;9.688;2023-01-15T02:24:08;1.27;;;0.60;;
20609;SDS011;10463;52.378;9.688;2023-01-15T02:29:47;1.60;;;0.60;;
20609;SDS011;10463;52.378;9.688;2023-01-15T02:32:26;1.20;;;0.60;;
20609;SDS011;10463;52.378;9.688;2023-01-15T02:35:03;1.20;;;0.50;;
20609;SDS011;10463;52.378;9.688;2023-01-15T02:37:34;1.60;;;0.90;;
20609;SDS011;10463;52.378;9.688;2023-01-15T02:40:08;1.20;;;0.60;;
20609;SDS011;10463;52.378;9.688;2023-01-15T02:42:38;1.33;;;0.70;;
20609;SDS011;10463;52.378;9.688;2023-01-15T02:45:07;1.40;;;0.70;;
20609;SDS011;10463;52.378;9.688;2023-01-15T02:47:36;1.30;;;0.67;;
20609;SDS011;10463;52.378;9.688;2023-01-15T02:50:08;1.20;;;0.70;;
20609;SDS011;10463;52.378;9.688;2023-01-15T02:52:41;1.20;;;0.60;;
20609;SDS011;10463;52.378;9.688;2023-01-15T02:55:16;1.40;;;0.70;;
20609;SDS011;10463;52.378;9.688;2023-01-15T02:57:48;1.30;;;0.63;;
20609;SDS011;10463;52.378;9.688;2023-01-15T03:00:18;1.73;;;0.60;;
20609;SDS011;10463;52.378;9.688;2023-01-15T03:02:50;1.20;;;0.53;;
20609;SDS011;10463;52.378;9.688;2023-01-15T03:05:25;1.40;;;0.60;;
20609;SDS011;10463;52.378;9.688;2023-01-15T03:07:57;1.20;;;0.60;;
20609;SDS011;10463;52.378;9.688;2023-01-15T03:10:31;1.20;;;0.60;;
20609;SDS011;10463;52.378;9.688;2023-01-15T03:13:06;1.70;;;0.70;;
20609;SDS011;10463;52.378;9.688;2023-01-15T03:15:47;1.20;;;0.60;;
20609;SDS011;10463;52.378;9.688;2023-01-15T03:18:41;3.47;;;0.97;;
20609;SDS011;10463;52.378;9.688;2023-01-15T03:21:13;1.33;;;0.80;;
20609;SDS011;10463;52.378;9.688;2023-01-15T03:23:44;2.37;;;1.00;;
20609;SDS011;10463;52.378;9.688;2023-01-15T03:26:14;1.47;;;0.90;;
20609;SDS011;10463;52.378;9.688;2023-01-15T03:28:44;1.53;;;0.60;;
20609;SDS011;10463;52.378;9.688;2023-01-15T03:31:12;4.50;;;1.00;;
20609;SDS011;10463;52.378;9.688;2023-01-15T03:33:39;1.73;;;0.70;;
20609;SDS011;10463;52.378;9.688;2023-01-15T03:36:12;1.63;;;0.80;;
20609;SDS011;10463;52.378;9.688;2023-01-15T03:38:43;1.60;;;0.70;;
20609;SDS011;10463;52.378;9.688;2023-01-15T03:41:20;2.00;;;0.83;;
20609;SDS011;10463;52.378;9.688;2023-01-15T03:44:01;1.87;;;0.80;;
20609;SDS011;10463;52.378;9.688;2023-01-15T03:46:53;1.60;;;0.70;;
20609;SDS011;10463;52.378;9.688;2023-01-15T03:49:36;2.20;;;0.80;;
20609;SDS011;10463;52.378;9.688;2023-01-15T03:52:21;1.83;;;0.70;;
20609;SDS011;10463;52.378;9.688;2023-01-15T03:54:59;1.90;;;0.83;;
20609;SDS011;10463;52.378;9.688;2023-01-15T03:57:36;1.90;;;0.80;;
20609;SDS011;10463;52.378;9.688;2023-01-15T04:00:09;1.40;;;0.80;;
20609;SDS011;10463;52.378;9.688;2023-01-15T04:02:43;2.30;;;0.80;;
20609;SDS011;10463;52.378;9.688;2023-01-15T04:05:13;1.90;;;1.10;;
20609;SDS011;10463;52.378;9.688;2023-01-15T04:07:41;3.60;;;0.80;;
20609;SDS011;10463;52.378;9.688;2023-01-15T04:10:09;1.60;;;0.83;;
20609;SDS011;10463;52.378;9.688;2023-01-15T04:12:37;4.20;;;0.80;;
20609;SDS011;10463;52.378;9.688;2023-01-15T04:15:11;2.23;;;0.90;;
20609;SDS011;10463;52.378;9.688;2023-01-15T04:17:39;1.80;;;0.90;;
20609;SDS011;10463;52.378;9.688;2023-01-15T04:20:07;3.40;;;1.00;;
20609;SDS011;10463;52.378;9.688;2023-01-15T04:22:38;1.67;;;0.90;;
20609;SDS011;10463;52.378;9.688;2023-01-15T04:25:06;1.70;;;0.90;;
20609;SDS011;10463;52.378;9.688;2023-01-15T04:27:34;1.43;;;0.80;;
20609;SDS011;10463;52.378;9.688;2023-01-15T04:30:00;2.23;;;0.90;;
20609;SDS011;10463;52.378;9.688;2023-01-15T04:32:28;1.70;;;0.90;;
20609;SDS011;10463;52.378;9.688;2023-01-15T04:34:55;1.53;;;0.90;;
20609;SDS011;10463;52.378;9.688;2023-01-15T04:37:21;1.57;;;0.70;;
20609;SDS011;10463;52.378;9.688;2023-01-15T04:39:49;1.40;;;0.70;;
20609;SDS011;10463;52.378;9.688;2023-01-15T04:42:16;1.50;;;0.80;;
20609;SDS011;10463;52.378;9.688;2023-01-15T04:45:01;2.67;;;0.90;;
20609;SDS011;10463;52.378;9.688;2023-01-15T04:47:30;1.87;;;0.93;;
20609;SDS011;10463;52.378;9.688;2023-01-15T04:49:57;1.40;;;0.90;;
20609;SDS011;10463;52.378;9.688;2023-01-15T04:52:23;2.63;;;1.00;;
20609;SDS011;10463;52.378;9.688;2023-01-15T04:54:50;1.70;;;0.80;;
20609;SDS011;10463;52.378;9.688;2023-01-15T04:57:19;3.20;;;1.20;;
20609;SDS011;10463;52.378;9.688;2023-01-15T04:59:45;1.70;;;0.97;;
20609;SDS011;10463;52.378;9.688;2023-01-15T05:02:12;3.07;;;1.07;;
20609;SDS011;10463;52.378;9.688;2023-01-15T05:04:40;3.00;;;1.57;;
20609;SDS011;10463;52.378;9.688;2023-01-15T05:07:07;1.80;;;1.13;;
20609;SDS011;10463;52.378;9.688;2023-01-15T05:09:34;2.43;;;0.93;;
20609;SDS011;10463;52.378;9.688;2023-01-15T05:12:01;1.87;;;1.13;;
20609;SDS011;10463;52.378;9.688;2023-01-15T05:14:29;3.00;;;1.00;;
20609;SDS011;10463;52.378;9.688;2023-01-15T05:16:56;2.00;;;1.10;;
20609;SDS011;10463;52.378;9.688;2023-01-15T05:19:23;2.33;;;1.23;;
20609;SDS011;10463;52.378;9.688;2023-01-15T05:21:52;2.03;;;1.07;;
20609;SDS011;10463;52.378;9.688;2023-01-15T05:24:19;2.40;;;1.07;;
20609;SDS011;10463;52.378;9.688;2023-01-15T05:26:46;3.03;;;0.90;;
20609;SDS011;10463;52.378;9.688;2023-01-15T05:29:13;1.60;;;0.93;;
20609;SDS011;10463;52.378;9.688;2023-01-15T05:31:39;2.33;;;1.00;;
20609;SDS011;10463;52.378;9.688;2023-01-15T05:34:10;3.30;;;1.03;;
20609;SDS011;10463;52.378;9.688;2023-01-15T05:36:37;2.20;;;1.20;;
20609;SDS011;10463;52.378;9.688;2023-01-15T05:39:05;3.47;;;1.37;;
20609;SDS011;10463;52.378;9.688;2023-01-15T05:41:32;3.83;;;0.90;;
20609;SDS011;10463;52.378;9.688;2023-01-15T05:44:15;4.17;;;1.40;;
20609;SDS011;10463;52.378;9.688;2023-01-15T05:46:43;1.90;;;0.90;;
20609;SDS011;10463;52.378;9.688;2023-01-15T05:49:12;3.43;;;1.40;;
20609;SDS011;10463;52.378;9.688;2023-01-15T05:51:40;2.40;;;1.40;;
20609;SDS011;10463;52.378;9.688;2023-01-15T05:54:11;2.90;;;1.07;;
20609;SDS011;10463;52.378;9.688;2023-01-15T05:56:39;2.90;;;1.17;;
20609;SDS011;10463;52.378;9.688;2023-01-15T05:59:08;2.07;;;1.10;;
20609;SDS011;10463;52.378;9.688;2023-01-15T06:01:35;2.53;;;1.17;;
20609;SDS011;10463;52.378;9.688;2023-01-15T06:04:03;1.70;;;1.10;;
20609;SDS011;10463;52.378;9.688;2023-01-15T06:06:31;2.10;;;1.20;;
20609;SDS011;10463;52.378;9.688;2023-01-15T06:08:59;2.93;;;1.20;;
20609;SDS011;10463;52.378;9.688;2023-01-15T06:11:27;2.33;;;1.20;;
20609;SDS011;10463;52.378;9.688;2023-01-15T06:13:53;3.10;;;1.23;;
20609;SDS011;10463;52.378;9.688;2023-01-15T06:16:20;2.20;;;1.17;;
20609;SDS011;10463;52.378;9.688;2023-01-15T06:18:47;2.93;;;1.30;;
20609;SDS011;10463;52.378;9.688;2023-01-15T06:21:14;3.10;;;1.10;;
20609;SDS011;10463;52.378;9.688;2023-01-15T06:23:42;2.63;;;1.60;;
20609;SDS011;10463;52.378;9.688;2023-01-15T06:26:11;2.20;;;1.30;;
20609;SDS011;10463;52.378;9.688;2023-01-15T06:28:41;4.83;;;1.30;;
20609;SDS011;10463;52.378;9.688;2023-01-15T06:31:10;2.53;;;1.43;;
20609;SDS011;10463;52.378;9.688;2023-01-15T06:33:38;2.33;;;0.97;;
20609;SDS011;10463;52.378;9.688;2023-01-15T06:36:06;2.27;;;1.30;;
20609;SDS011;10463;52.378;9.688;2023-01-15T06:38:35;3.17;;;1.80;;
20609;SDS011;10463;52.378;9.688;2023-01-15T06:41:05;2.83;;;1.00;;
20609;SDS011;10463;52.378;9.688;2023-01-15T06:43:56;3.37;;;1.80;;
20609;SDS011;10463;52.378;9.688;2023-01-15T06:46:43;1.83;;;1.10;;
20609;SDS011;10463;52.378;9.688;2023-01-15T06:49:29;3.17;;;1.33;;
20609;SDS011;10463;52.378;9.688;2023-01-15T06:51:56;2.20;;;1.50;;
20609;SDS011;10463;52.378;9.688;2023-01-15T06:54:24;3.60;;;2.10;;
20609;SDS011;10463;52.378;9.688;2023-01-15T06:56:51;2.07;;;1.03;;
20609;SDS011;10463;52.378;9.688;2023-01-15T06:59:19;4.60;;;1.50;;
20609;SDS011;10463;52.378;9.688;2023-01-15T07:01:46;3.23;;;1.13;;
20609;SDS011;10463;52.378;9.688;2023-01-15T07:04:13;2.37;;;1.30;;
20609;SDS011;10463;52.378;9.688;2023-01-15T07:06:40;3.00;;;1.30;;
20609;SDS011;10463;52.378;9.688;2023-01-15T07:09:06;3.10;;;1.50;;
20609;SDS011;10463;52.378;9.688;2023-01-15T07:11:33;2.80;;;1.30;;
20609;SDS011;10463;52.378;9.688;2023-01-15T07:14:00;4.67;;;1.50;;
20609;SDS011;10463;52.378;9.688;2023-01-15T07:16:34;2.90;;;1.30;;
20609;SDS011;10463;52.378;9.688;2023-01-15T07:19:01;2.57;;;1.00;;
20609;SDS011;10463;52.378;9.688;2023-01-15T07:21:29;4.73;;;1.90;;
20609;SDS011;10463;52.378;9.688;2023-01-15T07:23:58;4.07;;;1.50;;
20609;SDS011;10463;52.378;9.688;2023-01-15T07:26:26;2.80;;;1.30;;
20609;SDS011;10463;52.378;9.688;2023-01-15T07:28:53;4.13;;;1.23;;
20609;SDS011;10463;52.378;9.688;2023-01-15T07:31:20;3.23;;;1.40;;
20609;SDS011;10463;52.378;9.688;2023-01-15T07:33:48;4.50;;;1.53;;
20609;SDS011;10463;52.378;9.688;2023-01-15T07:36:15;2.90;;;1.87;;
20609;SDS011;10463;52.378;9.688;2023-01-15T07:38:41;4.47;;;1.33;;
20609;SDS011;10463;52.378;9.688;2023-01-15T07:41:08;4.03;;;2.00;;
20609;SDS011;10463;52.378;9.688;2023-01-15T07:43:53;3.33;;;1.60;;
20609;SDS011;10463;52.378;9.688;2023-01-15T07:46:38;3.83;;;1.80;;
20609;SDS011;10463;52.378;9.688;2023-01-15T07:49:25;4.90;;;1.30;;
20609;SDS011;10463;52.378;9.688;2023-01-15T07:52:10;3.17;;;1.00;;
20609;SDS011;10463;52.378;9.688;2023-01-15T07:54:37;4.43;;;1.70;;
20609;SDS011;10463;52.378;9.688;2023-01-15T07:57:03;4.43;;;1.67;;
20609;SDS011;10463;52.378;9.688;2023-01-15T07:59:30;2.77;;;1.30;;
20609;SDS011;10463;52.378;9.688;2023-01-15T08:01:57;4.07;;;1.87;;
20609;SDS011;10463;52.378;9.688;2023-01-15T08:04:25;3.10;;;1.43;;
20609;SDS011;10463;52.378;9.688;2023-01-15T08:06:51;4.53;;;1.60;;
20609;SDS011;10463;52.378;9.688;2023-01-15T08:09:17;4.33;;;1.53;;
20609;SDS011;10463;52.378;9.688;2023-01-15T08:11:44;4.10;;;1.90;;
20609;SDS011;10463;52.378;9.688;2023-01-15T08:14:29;3.70;;;1.42;;
20609;SDS011;10463;52.378;9.688;2023-01-15T08:17:14;4.40;;;1.90;;
20609;SDS011;10463;52.378;9.688;2023-01-15T08:19:42;5.03;;;1.53;;
20609;SDS011;10463;52.378;9.688;2023-01-15T08:22:09;4.23;;;1.30;;
20609;SDS011;10463;52.378;9.688;2023-01-15T08:24:36;7.13;;;1.83;;
20609;SDS011;10463;52.378;9.688;2023-01-15T08:27:03;2.90;;;1.67;;
20609;SDS011;10463;52.378;9.688;2023-01-15T08:29:29;3.03;;;1.53;;
20609;SDS011;10463;52.378;9.688;2023-01-15T08:31:56;3.33;;;1.27;;
20609;SDS011;10463;52.378;9.688;2023-01-15T08:34:22;4.37;;;1.70;;
20609;SDS011;10463;52.378;9.688;2023-01-15T08:36:50;2.70;;;1.43;;
20609;SDS011;10463;52.378;9.688;2023-01-15T08:39:22;4.17;;;1.77;;
20609;SDS011;10463;52.378;9.688;2023-01-15T08:41:48;2.77;;;1.40;;
20609;SDS011;10463;52.378;9.688;2023-01-15T08:44:14;4.17;;;1.70;;
20609;SDS011;10463;52.378;9.688;2023-01-15T08:46:42;4.33;;;1.30;;
20609;SDS011;10463;52.378;9.688;2023-01-15T08:49:09;3.07;;;1.60;;
20609;SDS011;10463;52.378;9.688;2023-01-15T08:51:35;5.00;;;1.57;;
20609;SDS011;10463;52.378;9.688;2023-01-15T08:54:03;4.80;;;1.87;;
20609;SDS011;10463;52.378;9.688;2023-01-15T08:56:30;4.13;;;1.50;;
20609;SDS011;10463;52.378;9.688;2023-01-15T08:58:56;5.60;;;1.80;;
20609;SDS011;10463;52.378;9.688;2023-01-15T09:01:23;3.60;;;1.50;;
20609;SDS011;10463;52.378;9.688;2023-01-15T09:03:49;6.43;;;1.60;;
20609;SDS011;10463;52.378;9.688;2023-01-15T09:06:16;3.90;;;1.30;;
20609;SDS011;10463;52.378;9.688;2023-01-15T09:08:43;2.37;;;1.23;;
20609;SDS011;10463;52.378;9.688;2023-01-15T09:11:10;2.10;;;1.10;;
20609;SDS011;10463;52.378;9.688;2023-01-15T09:13:38;4.90;;;1.40;;
20609;SDS011;10463;52.378;9.688;2023-01-15T09:16:06;2.97;;;1.50;;
20609;SDS011;10463;52.378;9.688;2023-01-15T09:18:35;3.73;;;1.57;;
20609;SDS011;10463;52.378;9.688;2023-01-15T09:21:04;3.70;;;2.00;;
20609;SDS011;10463;52.378;9.688;2023-01-15T09:23:30;3.60;;;1.40;;
20609;SDS011;10463;52.378;9.688;2023-01-15T09:25:58;4.33;;;1.70;;
20609;SDS011;10463;52.378;9.688;2023-01-15T09:28:28;2.10;;;1.30;;
20609;SDS011;10463;52.378;9.688;2023-01-15T09:30:54;4.37;;;1.70;;
20609;SDS011;10463;52.378;9.688;2023-01-15T09:33:21;3.30;;;1.40;;
20609;SDS011;10463;52.378;9.688;2023-01-15T09:35:47;3.47;;;1.57;;
20609;SDS011;10463;52.378;9.688;2023-01-15T09:38:15;2.90;;;1.60;;
20609;SDS011;10463;52.378;9.688;2023-01-15T09:40:46;3.10;;;1.20;;
20609;SDS011;10463;52.378;9.688;2023-01-15T09:43:23;5.73;;;1.70;;
20609;SDS011;10463;52.378;9.688;2023-01-15T09:46:07;2.97;;;1.37;;
20609;SDS011;10463;52.378;9.688;2023-01-15T09:48:42;3.10;;;1.20;;
20609;SDS011;10463;52.378;9.688;2023-01-15T09:51:23;6.07;;;1.90;;
20609;SDS011;10463;52.378;9.688;2023-01-15T09:54:05;4.50;;;1.60;;
20609;SDS011;10463;52.378;9.688;2023-01-15T09:56:41;3.30;;;1.97;;
20609;SDS011;10463;52.378;9.688;2023-01-15T09:59:19;3.40;;;1.10;;
20609;SDS011;10463;52.378;9.688;2023-01-15T10:01:50;4.37;;;2.27;;
20609;SDS011;10463;52.378;9.688;2023-01-15T10:04:27;3.37;;;1.70;;
20609;SDS011;10463;52.378;9.688;2023-01-15T10:07:02;3.47;;;1.33;;
20609;SDS011;10463;52.378;9.688;2023-01-15T10:09:37;2.87;;;1.20;;
20609;SDS011;10463;52.378;9.688;2023-01-15T10:12:11;2.83;;;1.40;;
20609;SDS011;10463;52.378;9.688;2023-01-15T10:17:50;4.80;;;1.50;;
20609;SDS011;10463;52.378;9.688;2023-01-15T10:20:32;2.77;;;1.57;;
20609;SDS011;10463;52.378;9.688;2023-01-15T10:23:40;2.00;;;1.10;;
20609;SDS011;10463;52.378;9.688;2023-01-15T10:26:20;2.23;;;1.10;;
20609;SDS011;10463;52.378;9.688;2023-01-15T10:29:00;1.70;;;0.97;;
20609;SDS011;10463;52.378;9.688;2023-01-15T10:31:48;3.00;;;1.07;;
20609;SDS011;10463;52.378;9.688;2023-01-15T10:37:36;2.77;;;1.30;;
20609;SDS011;10463;52.378;9.688;2023-01-15T10:43:38;1.60;;;0.93;;
20609;SDS011;10463;52.378;9.688;2023-01-15T10:46:12;1.90;;;0.90;;
20609;SDS011;10463;52.378;9.688;2023-01-15T10:48:44;2.20;;;0.93;;
20609;SDS011;10463;52.378;9.688;2023-01-15T10:51:14;3.53;;;1.00;;
20609;SDS011;10463;52.378;9.688;2023-01-15T10:53:45;2.37;;;1.10;;
20609;SDS011;10463;52.378;9.688;2023-01-15T10:56:20;2.20;;;1.10;;
20609;SDS011;10463;52.378;9.688;2023-01-15T10:58:55;2.63;;;1.00;;
20609;SDS011;10463;52.378;9.688;2023-01-15T11:01:29;2.57;;;1.30;;
20609;SDS011;10463;52.378;9.688;2023-01-15T11:03:57;1.80;;;0.93;;
20609;SDS011;10463;52.378;9.688;2023-01-15T11:06:24;2.30;;;1.00;;
20609;SDS011;10463;52.378;9.688;2023-01-15T11:08:52;2.17;;;1.00;;
20609;SDS011;10463;52.378;9.688;2023-01-15T11:11:22;2.20;;;1.03;;
20609;SDS011;10463;52.378;9.688;2023-01-15T11:14:10;2.80;;;1.00;;
20609;SDS011;10463;52.378;9.688;2023-01-15T11:16:55;2.63;;;1.20;;
20609;SDS011;10463;52.378;9.688;2023-01-15T11:19:42;2.63;;;1.10;;
20609;SDS011;10463;52.378;9.688;2023-01-15T11:22:11;2.37;;;0.90;;
20609;SDS011;10463;52.378;9.688;2023-01-15T11:24:48;2.27;;;1.10;;
20609;SDS011;10463;52.378;9.688;2023-01-15T11:27:18;1.77;;;0.93;;
20609;SDS011;10463;52.378;9.688;2023-01-15T11:29:50;2.30;;;1.40;;
20609;SDS011;10463;52.378;9.688;2023-01-15T11:32:27;1.77;;;1.00;;
20609;SDS011;10463;52.378;9.688;2023-01-15T11:34:57;2.00;;;0.80;;
20609;SDS011;10463;52.378;9.688;2023-01-15T11:37:27;3.63;;;1.00;;
20609;SDS011;10463;52.378;9.688;2023-01-15T11:39:54;1.80;;;0.93;;
20609;SDS011;10463;52.378;9.688;2023-01-15T11:42:22;2.03;;;1.00;;
20609;SDS011;10463;52.378;9.688;2023-01-15T11:45:13;4.83;;;1.00;;
20609;SDS011;10463;52.378;9.688;2023-01-15T11:47:59;1.57;;;0.70;;
20609;SDS011;10463;52.378;9.688;2023-01-15T11:51:05;2.07;;;1.00;;
20609;SDS011;10463;52.378;9.688;2023-01-15T11:53:38;1.57;;;0.80;;
20609;SDS011;10463;52.378;9.688;2023-01-15T11:56:08;1.80;;;0.90;;
20609;SDS011;10463;52.378;9.688;2023-01-15T11:58:45;1.50;;;0.80;;
20609;SDS011;10463;52.378;9.688;2023-01-15T12:01:19;1.77;;;0.70;;
20609;SDS011;10463;52.378;9.688;2023-01-15T12:03:48;1.80;;;0.90;;
20609;SDS011;10463;52.378;9.688;2023-01-15T12:06:18;1.37;;;0.73;;
20609;SDS011;10463;52.378;9.688;2023-01-15T12:08:47;1.87;;;1.17;;
20609;SDS011;10463;52.378;9.688;2023-01-15T12:11:26;1.40;;;0.87;;
20609;SDS011;10463;52.378;9.688;2023-01-15T12:17:12;2.70;;;0.80;;
20609;SDS011;10463;52.378;9.688;2023-01-15T12:19:48;2.47;;;1.33;;
20609;SDS011;10463;52.378;9.688;2023-01-15T12:22:33;1.80;;;0.90;;
20609;SDS011;10463;52.378;9.688;2023-01-15T12:25:19;2.50;;;1.03;;
20609;SDS011;10463;52.378;9.688;2023-01-15T12:27:56;2.00;;;1.00;;
20609;SDS011;10463;52.378;9.688;2023-01-15T12:30:34;1.50;;;0.80;;
20609;SDS011;10463;52.378;9.688;2023-01-15T12:33:14;2.07;;;1.00;;
20609;SDS011;10463;52.378;9.688;2023-01-15T12:35:48;1.90;;;0.90;;
20609;SDS011;10463;52.378;9.688;2023-01-15T12:38:28;1.70;;;1.00;;
20609;SDS011;10463;52.378;9.688;2023-01-15T12:41:09;1.90;;;0.87;;
20609;SDS011;10463;52.378;9.688;2023-01-15T12:43:42;2.30;;;1.00;;
20609;SDS011;10463;52.378;9.688;2023-01-15T12:46:32;1.67;;;0.80;;
20609;SDS011;10463;52.378;9.688;2023-01-15T12:49:03;1.60;;;0.90;;
20609;SDS011;10463;52.378;9.688;2023-01-15T12:51:44;3.23;;;1.70;;
20609;SDS011;10463;52.378;9.688;2023-01-15T12:54:18;2.53;;;0.97;;
20609;SDS011;10463;52.378;9.688;2023-01-15T12:56:52;1.87;;;0.90;;
20609;SDS011;10463;52.378;9.688;2023-01-15T12:59:26;1.53;;;0.80;;
20609;SDS011;10463;52.378;9.688;2023-01-15T13:02:03;1.30;;;0.70;;
20609;SDS011;10463;52.378;9.688;2023-01-15T13:04:43;1.73;;;0.90;;
20609;SDS011;10463;52.378;9.688;2023-01-15T13:07:17;1.87;;;0.97;;
20609;SDS011;10463;52.378;9.688;2023-01-15T13:09:55;1.60;;;0.90;;
20609;SDS011;10463;52.378;9.688;2023-01-15T13:12:31;1.50;;;0.87;;
20609;SDS011;10463;52.378;9.688;2023-01-15T13:14:59;1.60;;;0.80;;
20609;SDS011;10463;52.378;9.688;2023-01-15T13:17:30;1.80;;;1.00;;
20609;SDS011;10463;52.378;9.688;2023-01-15T13:20:13;1.80;;;1.00;;
20609;SDS011;10463;52.378;9.688;2023-01-15T13:22:54;1.93;;;0.90;;
20609;SDS011;10463;52.378;9.688;2023-01-15T13:25:45;2.10;;;0.87;;
20609;SDS011;10463;52.378;9.688;2023-01-15T13:28:31;2.23;;;1.50;;
20609;SDS011;10463;52.378;9.688;2023-01-15T13:31:12;2.10;;;1.00;;
20609;SDS011;10463;52.378;9.688;2023-01-15T13:33:58;2.30;;;1.30;;
20609;SDS011;10463;52.378;9.688;2023-01-15T13:36:28;1.70;;;1.03;;
20609;SDS011;10463;52.378;9.688;2023-01-15T13:38:59;2.03;;;1.10;;
20609;SDS011;10463;52.378;9.688;2023-01-15T13:41:31;2.73;;;1.27;;
20609;SDS011;10463;52.378;9.688;2023-01-15T13:44:18;2.87;;;1.60;;
20609;SDS011;10463;52.378;9.688;2023-01-15T13:46:47;1.93;;;1.37;;
20609;SDS011;10463;52.378;9.688;2023-01-15T13:49:27;2.23;;;1.60;;
20609;SDS011;10463;52.378;9.688;2023-01-15T13:51:57;2.00;;;1.27;;
20609;SDS011;10463;52.378;9.688;2023-01-15T13:54:28;2.03;;;1.27;;
20609;SDS011;10463;52.378;9.688;2023-01-15T13:57:07;2.87;;;1.57;;
20609;SDS011;10463;52.378;9.688;2023-01-15T13:59:39;3.43;;;1.60;;
20609;SDS011;10463;52.378;9.688;2023-01-15T14:02:27;2.70;;;1.30;;
20609;SDS011;10463;52.378;9.688;2023-01-15T14:04:55;1.93;;;1.07;;
20609;SDS011;10463;52.378;9.688;2023-01-15T14:07:30;1.90;;;1.40;;
20609;SDS011;10463;52.378;9.688;2023-01-15T14:10:21;3.80;;;1.40;;
20609;SDS011;10463;52.378;9.688;2023-01-15T14:13:12;1.93;;;1.07;;
20609;SDS011;10463;52.378;9.688;2023-01-15T14:16:03;2.93;;;1.47;;
20609;SDS011;10463;52.378;9.688;2023-01-15T14:18:54;4.20;;;2.10;;
20609;SDS011;10463;52.378;9.688;2023-01-15T14:21:50;3.33;;;2.10;;
20609;SDS011;10463;52.378;9.688;2023-01-15T14:27:33;3.50;;;1.70;;
20609;SDS011;10463;52.378;9.688;2023-01-15T14:30:34;2.80;;;2.03;;
20609;SDS011;10463;52.378;9.688;2023-01-15T14:33:25;2.40;;;1.53;;
20609;SDS011;10463;52.378;9.688;2023-01-15T14:36:08;2.93;;;2.23;;
20609;SDS011;10463;52.378;9.688;2023-01-15T14:38:44;5.23;;;1.87;;
20609;SDS011;10463;52.378;9.688;2023-01-15T14:41:14;3.50;;;2.00;;
20609;SDS011;10463;52.378;9.688;2023-01-15T14:43:47;2.87;;;1.70;;
20609;SDS011;10463;52.378;9.688;2023-01-15T14:46:21;5.47;;;2.10;;
20609;SDS011;10463;52.378;9.688;2023-01-15T14:48:52;2.50;;;1.77;;
20609;SDS011;10463;52.378;9.688;2023-01-15T14:51:22;2.57;;;1.80;;
20609;SDS011;10463;52.378;9.688;2023-01-15T14:53:51;2.53;;;1.73;;
20609;SDS011;10463;52.378;9.688;2023-01-15T14:56:22;2.83;;;1.30;;
20609;SDS011;10463;52.378;9.688;2023-01-15T14:58:54;3.77;;;1.97;;
20609;SDS011;10463;52.378;9.688;2023-01-15T15:01:42;2.20;;;1.57;;
20609;SDS011;10463;52.378;9.688;2023-01-15T15:04:20;2.87;;;1.43;;
20609;SDS011;10463;52.378;9.688;2023-01-15T15:06:53;2.57;;;1.80;;
20609;SDS011;10463;52.378;9.688;2023-01-15T15:09:30;2.60;;;1.77;;
20609;SDS011;10463;52.378;9.688;2023-01-15T15:12:28;2.77;;;1.70;;
20609;SDS011;10463;52.378;9.688;2023-01-15T15:15:02;2.47;;;1.60;;
20609;SDS011;10463;52.378;9.688;2023-01-15T15:17:43;2.10;;;1.37;;
20609;SDS011;10463;52.378;9.688;2023-01-15T15:20:24;2.97;;;1.50;;
20609;SDS011;10463;52.378;9.688;2023-01-15T15:22:58;2.43;;;1.53;;
20609;SDS011;10463;52.378;9.688;2023-01-15T15:25:29;2.20;;;1.40;;
20609;SDS011;10463;52.378;9.688;2023-01-15T15:28:02;2.90;;;1.40;;
20609;SDS011;10463;52.378;9.688;2023-01-15T15:30:31;2.23;;;1.27;;
20609;SDS011;10463;52.378;9.688;2023-01-15T15:33:03;3.97;;;1.67;;
20609;SDS011;10463;52.378;9.688;2023-01-15T15:35:30;2.60;;;1.43;;
20609;SDS011;10463;52.378;9.688;2023-01-15T15:37:59;2.53;;;1.43;;
20609;SDS011;10463;52.378;9.688;2023-01-15T15:40:31;2.33;;;1.40;;